sensor_id;sensor_type;location;lat;lon;timestamp;pressure;altitude;pressure_sealevel;temperature;humidity
11198;BME280;5655;48.744;9.162;2024-02-21T00:02:24;97106.28;;;8.30;100.00
11198;BME280;5655;48.744;9.162;2024-02-21T00:04:49;97105.75;;;8.36;100.00
11198;BME280;5655;48.744;9.162;2024-02-21T00:07:15;97102.41;;;8.39;100.00
11198;BME280;5655;48.744;9.162;2024-02-21T00:09:40;97111.31;;;8.43;100.00
11198;BME280;5655;48.744;9.162;2024-02-21T00:12:06;97104.19;;;8.35;100.00
11198;BME280;5655;48.744;9.162;2024-02-21T00:14:31;97108.63;;;8.31;100.00
11198;BME280;5655;48.744;9.162;2024-02-21T00:16:57;97103.47;;;8.26;100.00
11198;BME280;5655;48.744;9.162;2024-02-21T00:19:22;97093.19;;;8.16;100.00
11198;BME280;5655;48.744;9.162;2024-02-21T00:21:47;97092.78;;;8.26;100.00
11198;BME280;5655;48.744;9.162;2024-02-21T00:24:13;97094.56;;;8.22;100.00
11198;BME280;5655;48.744;9.162;2024-02-21T00:26:38;97085.19;;;8.16;100.00
11198;BME280;5655;48.744;9.162;2024-02-21T00:29:03;97076.50;;;8.07;100.00
11198;BME280;5655;48.744;9.162;2024-02-21T00:31:28;97068.06;;;8.05;100.00
11198;BME280;5655;48.744;9.162;2024-02-21T00:33:54;97065.84;;;8.07;100.00
11198;BME280;5655;48.744;9.162;2024-02-21T00:36:19;97064.28;;;8.06;100.00
11198;BME280;5655;48.744;9.162;2024-02-21T00:38:44;97058.19;;;8.05;100.00
11198;BME280;5655;48.744;9.162;2024-02-21T00:41:10;97063.63;;;8.09;100.00
11198;BME280;5655;48.744;9.162;2024-02-21T00:43:35;97067.22;;;8.25;100.00
11198;BME280;5655;48.744;9.162;2024-02-21T00:46:00;97064.19;;;8.35;100.00
11198;BME280;5655;48.744;9.162;2024-02-21T00:48:25;97064.13;;;8.23;100.00
11198;BME280;5655;48.744;9.162;2024-02-21T00:50:51;97059.44;;;8.20;100.00
11198;BME280;5655;48.744;9.162;2024-02-21T00:53:17;97064.00;;;8.19;100.00
11198;BME280;5655;48.744;9.162;2024-02-21T00:55:42;97061.88;;;8.25;100.00
11198;BME280;5655;48.744;9.162;2024-02-21T00:58:08;97056.69;;;8.29;100.00
11198;BME280;5655;48.744;9.162;2024-02-21T01:00:34;97051.91;;;8.22;100.00
11198;BME280;5655;48.744;9.162;2024-02-21T01:02:59;97049.97;;;8.43;100.00
11198;BME280;5655;48.744;9.162;2024-02-21T01:05:24;97050.84;;;8.35;100.00
11198;BME280;5655;48.744;9.162;2024-02-21T01:07:50;97051.91;;;8.22;100.00
11198;BME280;5655;48.744;9.162;2024-02-21T01:10:15;97046.97;;;8.12;100.00
11198;BME280;5655;48.744;9.162;2024-02-21T01:12:42;97042.09;;;8.14;100.00
11198;BME280;5655;48.744;9.162;2024-02-21T01:15:07;97030.84;;;8.08;100.00
11198;BME280;5655;48.744;9.162;2024-02-21T01:17:32;97021.56;;;7.82;100.00
11198;BME280;5655;48.744;9.162;2024-02-21T01:19:58;97024.03;;;7.87;100.00
11198;BME280;5655;48.744;9.162;2024-02-21T01:22:23;97015.19;;;8.07;100.00
11198;BME280;5655;48.744;9.162;2024-02-21T01:24:49;97011.69;;;7.82;100.00
11198;BME280;5655;48.744;9.162;2024-02-21T01:27:14;97009.00;;;8.15;100.00
11198;BME280;5655;48.744;9.162;2024-02-21T01:29:39;97006.72;;;7.93;100.00
11198;BME280;5655;48.744;9.162;2024-02-21T01:32:05;97008.53;;;8.01;100.00
11198;BME280;5655;48.744;9.162;2024-02-21T01:34:30;96994.00;;;8.10;100.00
11198;BME280;5655;48.744;9.162;2024-02-21T01:36:55;97001.84;;;8.07;100.00
11198;BME280;5655;48.744;9.162;2024-02-21T01:39:21;96989.75;;;7.97;100.00
11198;BME280;5655;48.744;9.162;2024-02-21T01:41:46;96978.50;;;7.92;100.00
11198;BME280;5655;48.744;9.162;2024-02-21T01:44:11;96985.03;;;7.82;100.00
11198;BME280;5655;48.744;9.162;2024-02-21T01:46:37;96987.09;;;7.97;100.00
11198;BME280;5655;48.744;9.162;2024-02-21T01:49:02;96975.19;;;8.07;100.00
11198;BME280;5655;48.744;9.162;2024-02-21T01:51:30;96970.31;;;7.97;100.00
11198;BME280;5655;48.744;9.162;2024-02-21T01:53:56;96966.28;;;7.91;100.00
11198;BME280;5655;48.744;9.162;2024-02-21T01:56:23;96966.56;;;8.10;100.00
11198;BME280;5655;48.744;9.162;2024-02-21T01:58:49;96960.94;;;7.79;100.00
11198;BME280;5655;48.744;9.162;2024-02-21T02:01:16;96954.09;;;8.02;100.00
11198;BME280;5655;48.744;9.162;2024-02-21T02:03:42;96957.19;;;7.92;100.00
11198;BME280;5655;48.744;9.162;2024-02-21T02:06:09;96951.41;;;7.90;100.00
11198;BME280;5655;48.744;9.162;2024-02-21T02:08:35;96942.69;;;7.68;100.00
11198;BME280;5655;48.744;9.162;2024-02-21T02:11:00;96947.50;;;7.75;100.00
11198;BME280;5655;48.744;9.162;2024-02-21T02:13:26;96943.06;;;7.79;100.00
11198;BME280;5655;48.744;9.162;2024-02-21T02:15:51;96947.22;;;7.68;100.00
11198;BME280;5655;48.744;9.162;2024-02-21T02:18:19;96930.91;;;7.57;100.00
11198;BME280;5655;48.744;9.162;2024-02-21T02:20:45;96930.53;;;7.92;100.00
11198;BME280;5655;48.744;9.162;2024-02-21T02:23:31;96925.41;;;7.74;100.00
11198;BME280;5655;48.744;9.162;2024-02-21T02:25:57;96922.81;;;7.66;100.00
11198;BME280;5655;48.744;9.162;2024-02-21T02:28:22;96919.34;;;7.53;100.00
11198;BME280;5655;48.744;9.162;2024-02-21T02:30:48;96915.16;;;7.64;100.00
11198;BME280;5655;48.744;9.162;2024-02-21T02:33:14;96913.44;;;7.81;100.00
11198;BME280;5655;48.744;9.162;2024-02-21T02:35:39;96906.53;;;7.92;100.00
11198;BME280;5655;48.744;9.162;2024-02-21T02:38:05;96909.63;;;7.69;100.00
11198;BME280;5655;48.744;9.162;2024-02-21T02:40:31;96909.88;;;7.89;100.00
11198;BME280;5655;48.744;9.162;2024-02-21T02:42:56;96898.28;;;7.72;100.00
11198;BME280;5655;48.744;9.162;2024-02-21T02:45:23;96892.91;;;8.05;100.00
11198;BME280;5655;48.744;9.162;2024-02-21T02:47:49;96892.75;;;7.90;100.00
11198;BME280;5655;48.744;9.162;2024-02-21T02:50:15;96892.31;;;7.63;100.00
11198;BME280;5655;48.744;9.162;2024-02-21T02:52:40;96892.31;;;7.75;100.00
11198;BME280;5655;48.744;9.162;2024-02-21T02:55:06;96881.34;;;8.01;100.00
11198;BME280;5655;48.744;9.162;2024-02-21T02:57:32;96887.47;;;8.02;100.00
11198;BME280;5655;48.744;9.162;2024-02-21T02:59:57;96872.91;;;7.99;100.00
11198;BME280;5655;48.744;9.162;2024-02-21T03:02:23;96866.13;;;8.02;100.00
11198;BME280;5655;48.744;9.162;2024-02-21T03:04:48;96852.34;;;8.00;100.00
11198;BME280;5655;48.744;9.162;2024-02-21T03:07:14;96849.47;;;8.05;100.00
11198;BME280;5655;48.744;9.162;2024-02-21T03:09:40;96851.34;;;7.92;100.00
11198;BME280;5655;48.744;9.162;2024-02-21T03:12:08;96850.47;;;7.88;100.00
11198;BME280;5655;48.744;9.162;2024-02-21T03:14:33;96840.25;;;8.02;100.00
11198;BME280;5655;48.744;9.162;2024-02-21T03:16:59;96846.81;;;7.81;100.00
11198;BME280;5655;48.744;9.162;2024-02-21T03:19:25;96840.13;;;7.74;100.00
11198;BME280;5655;48.744;9.162;2024-02-21T03:21:51;96850.38;;;7.85;100.00
11198;BME280;5655;48.744;9.162;2024-02-21T03:24:17;96855.69;;;7.85;100.00
11198;BME280;5655;48.744;9.162;2024-02-21T03:26:42;96872.44;;;7.73;100.00
11198;BME280;5655;48.744;9.162;2024-02-21T03:29:08;96860.13;;;7.81;100.00
11198;BME280;5655;48.744;9.162;2024-02-21T03:31:34;96867.66;;;8.03;100.00
11198;BME280;5655;48.744;9.162;2024-02-21T03:34:00;96857.69;;;8.00;100.00
11198;BME280;5655;48.744;9.162;2024-02-21T03:36:25;96857.00;;;7.79;100.00
11198;BME280;5655;48.744;9.162;2024-02-21T03:38:50;96851.69;;;8.03;100.00
11198;BME280;5655;48.744;9.162;2024-02-21T03:41:15;96836.13;;;8.17;100.00
11198;BME280;5655;48.744;9.162;2024-02-21T03:43:41;96839.91;;;7.92;100.00
11198;BME280;5655;48.744;9.162;2024-02-21T03:46:06;96824.81;;;7.96;100.00
11198;BME280;5655;48.744;9.162;2024-02-21T03:48:32;96824.81;;;7.96;100.00
11198;BME280;5655;48.744;9.162;2024-02-21T03:50:58;96836.56;;;7.95;100.00
11198;BME280;5655;48.744;9.162;2024-02-21T03:53:23;96844.34;;;7.88;100.00
11198;BME280;5655;48.744;9.162;2024-02-21T03:55:48;96849.00;;;7.91;100.00
11198;BME280;5655;48.744;9.162;2024-02-21T03:58:13;96833.81;;;7.91;100.00
11198;BME280;5655;48.744;9.162;2024-02-21T04:00:39;96825.81;;;7.79;100.00
11198;BME280;5655;48.744;9.162;2024-02-21T04:03:04;96833.81;;;7.67;100.00
11198;BME280;5655;48.744;9.162;2024-02-21T04:05:31;96826.34;;;7.72;100.00
11198;BME280;5655;48.744;9.162;2024-02-21T04:07:57;96827.59;;;7.75;100.00
11198;BME280;5655;48.744;9.162;2024-02-21T04:10:22;96834.81;;;7.74;100.00
11198;BME280;5655;48.744;9.162;2024-02-21T04:12:47;96809.03;;;7.91;100.00
11198;BME280;5655;48.744;9.162;2024-02-21T04:15:16;96807.28;;;7.70;100.00
11198;BME280;5655;48.744;9.162;2024-02-21T04:17:41;96811.16;;;7.73;100.00
11198;BME280;5655;48.744;9.162;2024-02-21T04:20:13;96799.47;;;7.41;100.00
11198;BME280;5655;48.744;9.162;2024-02-21T04:22:38;96800.28;;;7.66;100.00
11198;BME280;5655;48.744;9.162;2024-02-21T04:25:04;96789.28;;;7.80;100.00
11198;BME280;5655;48.744;9.162;2024-02-21T04:27:29;96768.41;;;7.69;100.00
11198;BME280;5655;48.744;9.162;2024-02-21T04:29:54;96783.94;;;7.55;100.00
11198;BME280;5655;48.744;9.162;2024-02-21T04:32:20;96791.19;;;7.55;100.00
11198;BME280;5655;48.744;9.162;2024-02-21T04:34:45;96801.06;;;7.66;100.00
11198;BME280;5655;48.744;9.162;2024-02-21T04:37:10;96789.63;;;7.66;100.00
11198;BME280;5655;48.744;9.162;2024-02-21T04:39:36;96782.16;;;7.47;100.00
11198;BME280;5655;48.744;9.162;2024-02-21T04:42:01;96775.50;;;7.41;100.00
11198;BME280;5655;48.744;9.162;2024-02-21T04:44:26;96774.63;;;7.37;100.00
11198;BME280;5655;48.744;9.162;2024-02-21T04:46:51;96782.16;;;7.47;100.00
11198;BME280;5655;48.744;9.162;2024-02-21T04:49:17;96784.81;;;7.59;100.00
11198;BME280;5655;48.744;9.162;2024-02-21T04:51:42;96780.53;;;7.67;100.00
11198;BME280;5655;48.744;9.162;2024-02-21T04:54:08;96785.06;;;7.66;100.00
11198;BME280;5655;48.744;9.162;2024-02-21T04:56:34;96787.38;;;7.68;100.00
11198;BME280;5655;48.744;9.162;2024-02-21T04:58:59;96790.72;;;7.65;100.00
11198;BME280;5655;48.744;9.162;2024-02-21T05:01:24;96780.41;;;7.63;100.00
11198;BME280;5655;48.744;9.162;2024-02-21T05:03:50;96791.28;;;7.70;100.00
11198;BME280;5655;48.744;9.162;2024-02-21T05:06:15;96796.81;;;7.53;100.00
11198;BME280;5655;48.744;9.162;2024-02-21T05:08:40;96792.94;;;7.75;100.00
11198;BME280;5655;48.744;9.162;2024-02-21T05:11:06;96793.50;;;7.56;100.00
11198;BME280;5655;48.744;9.162;2024-02-21T05:13:32;96797.72;;;7.57;100.00
11198;BME280;5655;48.744;9.162;2024-02-21T05:15:57;96812.81;;;7.65;100.00
11198;BME280;5655;48.744;9.162;2024-02-21T05:18:26;96807.47;;;7.65;100.00
11198;BME280;5655;48.744;9.162;2024-02-21T05:20:51;96798.59;;;7.37;100.00
11198;BME280;5655;48.744;9.162;2024-02-21T05:23:17;96792.59;;;7.52;100.00
11198;BME280;5655;48.744;9.162;2024-02-21T05:25:42;96783.50;;;7.41;100.00
11198;BME280;5655;48.744;9.162;2024-02-21T05:28:07;96767.06;;;7.51;100.00
11198;BME280;5655;48.744;9.162;2024-02-21T05:30:33;96752.66;;;7.77;100.00
11198;BME280;5655;48.744;9.162;2024-02-21T05:32:58;96752.88;;;7.35;100.00
11198;BME280;5655;48.744;9.162;2024-02-21T05:35:28;96751.34;;;7.46;100.00
11198;BME280;5655;48.744;9.162;2024-02-21T05:37:53;96745.13;;;7.54;100.00
11198;BME280;5655;48.744;9.162;2024-02-21T05:40:19;96756.41;;;7.51;100.00
11198;BME280;5655;48.744;9.162;2024-02-21T05:42:44;96746.31;;;7.69;100.00
11198;BME280;5655;48.744;9.162;2024-02-21T05:45:09;96747.09;;;7.69;100.00
11198;BME280;5655;48.744;9.162;2024-02-21T05:47:35;96741.00;;;7.69;100.00
11198;BME280;5655;48.744;9.162;2024-02-21T05:50:00;96736.44;;;7.69;100.00
11198;BME280;5655;48.744;9.162;2024-02-21T05:52:25;96735.00;;;7.48;100.00
11198;BME280;5655;48.744;9.162;2024-02-21T05:54:50;96736.09;;;7.35;100.00
11198;BME280;5655;48.744;9.162;2024-02-21T05:57:19;96726.47;;;7.54;100.00
11198;BME280;5655;48.744;9.162;2024-02-21T05:59:45;96722.03;;;7.46;100.00
11198;BME280;5655;48.744;9.162;2024-02-21T06:02:10;96730.47;;;7.24;100.00
11198;BME280;5655;48.744;9.162;2024-02-21T06:04:35;96724.66;;;7.22;100.00
11198;BME280;5655;48.744;9.162;2024-02-21T06:07:01;96730.88;;;7.14;100.00
11198;BME280;5655;48.744;9.162;2024-02-21T06:09:27;96728.53;;;7.12;100.00
11198;BME280;5655;48.744;9.162;2024-02-21T06:11:53;96724.44;;;7.03;100.00
11198;BME280;5655;48.744;9.162;2024-02-21T06:14:19;96724.03;;;7.37;100.00
11198;BME280;5655;48.744;9.162;2024-02-21T06:16:44;96736.66;;;7.40;100.00
11198;BME280;5655;48.744;9.162;2024-02-21T06:19:09;96728.00;;;7.19;100.00
11198;BME280;5655;48.744;9.162;2024-02-21T06:21:35;96727.91;;;7.15;100.00
11198;BME280;5655;48.744;9.162;2024-02-21T06:24:01;96713.53;;;6.96;100.00
11198;BME280;5655;48.744;9.162;2024-02-21T06:26:26;96723.31;;;7.04;100.00
11198;BME280;5655;48.744;9.162;2024-02-21T06:28:51;96727.44;;;7.25;100.00
11198;BME280;5655;48.744;9.162;2024-02-21T06:31:17;96732.16;;;6.96;100.00
11198;BME280;5655;48.744;9.162;2024-02-21T06:33:43;96734.19;;;6.99;100.00
11198;BME280;5655;48.744;9.162;2024-02-21T06:36:08;96732.66;;;7.10;100.00
11198;BME280;5655;48.744;9.162;2024-02-21T06:38:33;96732.69;;;6.77;100.00
11198;BME280;5655;48.744;9.162;2024-02-21T06:40:59;96746.81;;;6.90;100.00
11198;BME280;5655;48.744;9.162;2024-02-21T06:43:26;96758.81;;;7.08;100.00
11198;BME280;5655;48.744;9.162;2024-02-21T06:45:51;96748.81;;;7.05;100.00
11198;BME280;5655;48.744;9.162;2024-02-21T06:48:17;96746.72;;;7.10;100.00
11198;BME280;5655;48.744;9.162;2024-02-21T06:50:43;96745.72;;;7.03;100.00
11198;BME280;5655;48.744;9.162;2024-02-21T06:53:09;96739.53;;;7.11;100.00
11198;BME280;5655;48.744;9.162;2024-02-21T06:55:35;96735.88;;;7.27;100.00
11198;BME280;5655;48.744;9.162;2024-02-21T06:58:00;96729.44;;;7.16;100.00
11198;BME280;5655;48.744;9.162;2024-02-21T07:00:28;96738.88;;;7.26;100.00
11198;BME280;5655;48.744;9.162;2024-02-21T07:02:53;96733.13;;;7.24;100.00
11198;BME280;5655;48.744;9.162;2024-02-21T07:05:19;96731.56;;;7.11;100.00
11198;BME280;5655;48.744;9.162;2024-02-21T07:07:44;96731.34;;;7.28;100.00
11198;BME280;5655;48.744;9.162;2024-02-21T07:10:09;96726.44;;;7.30;100.00
11198;BME280;5655;48.744;9.162;2024-02-21T07:12:35;96712.25;;;7.38;100.00
11198;BME280;5655;48.744;9.162;2024-02-21T07:15:04;96702.06;;;7.40;100.00
11198;BME280;5655;48.744;9.162;2024-02-21T07:17:30;96708.25;;;7.68;100.00
11198;BME280;5655;48.744;9.162;2024-02-21T07:19:55;96710.94;;;7.32;100.00
11198;BME280;5655;48.744;9.162;2024-02-21T07:22:22;96711.59;;;7.53;100.00
11198;BME280;5655;48.744;9.162;2024-02-21T07:24:47;96708.59;;;7.43;100.00
11198;BME280;5655;48.744;9.162;2024-02-21T07:27:15;96707.38;;;7.40;100.00
11198;BME280;5655;48.744;9.162;2024-02-21T07:29:40;96700.38;;;7.60;100.00
11198;BME280;5655;48.744;9.162;2024-02-21T07:32:06;96699.16;;;7.69;100.00
11198;BME280;5655;48.744;9.162;2024-02-21T07:34:31;96713.34;;;7.73;100.00
11198;BME280;5655;48.744;9.162;2024-02-21T07:36:57;96700.41;;;8.00;100.00
11198;BME280;5655;48.744;9.162;2024-02-21T07:39:23;96694.06;;;8.04;100.00
11198;BME280;5655;48.744;9.162;2024-02-21T07:41:49;96692.22;;;7.93;100.00
11198;BME280;5655;48.744;9.162;2024-02-21T07:44:15;96698.00;;;7.83;100.00
11198;BME280;5655;48.744;9.162;2024-02-21T07:46:40;96693.09;;;7.97;100.00
11198;BME280;5655;48.744;9.162;2024-02-21T07:49:06;96688.19;;;8.11;100.00
11198;BME280;5655;48.744;9.162;2024-02-21T07:51:31;96678.41;;;8.15;100.00
11198;BME280;5655;48.744;9.162;2024-02-21T07:53:56;96676.34;;;8.24;100.00
11198;BME280;5655;48.744;9.162;2024-02-21T07:56:22;96663.28;;;8.19;100.00
11198;BME280;5655;48.744;9.162;2024-02-21T07:58:47;96666.34;;;8.21;100.00
11198;BME280;5655;48.744;9.162;2024-02-21T08:01:20;96661.91;;;8.25;100.00
11198;BME280;5655;48.744;9.162;2024-02-21T08:03:46;96664.53;;;8.37;100.00
11198;BME280;5655;48.744;9.162;2024-02-21T08:06:12;96659.31;;;8.41;100.00
11198;BME280;5655;48.744;9.162;2024-02-21T08:08:38;96654.44;;;8.58;100.00
11198;BME280;5655;48.744;9.162;2024-02-21T08:11:03;96659.25;;;8.69;100.00
11198;BME280;5655;48.744;9.162;2024-02-21T08:13:29;96658.56;;;8.72;100.00
11198;BME280;5655;48.744;9.162;2024-02-21T08:15:54;96644.38;;;8.68;100.00
11198;BME280;5655;48.744;9.162;2024-02-21T08:18:19;96647.56;;;8.89;100.00
11198;BME280;5655;48.744;9.162;2024-02-21T08:20:45;96653.25;;;9.03;100.00
11198;BME280;5655;48.744;9.162;2024-02-21T08:23:10;96664.78;;;9.07;100.00
11198;BME280;5655;48.744;9.162;2024-02-21T08:25:35;96667.13;;;8.93;100.00
11198;BME280;5655;48.744;9.162;2024-02-21T08:28:01;96661.69;;;8.89;100.00
11198;BME280;5655;48.744;9.162;2024-02-21T08:30:26;96664.78;;;9.07;100.00
11198;BME280;5655;48.744;9.162;2024-02-21T08:32:52;96655.16;;;9.18;100.00
11198;BME280;5655;48.744;9.162;2024-02-21T08:35:19;96650.47;;;9.46;100.00
11198;BME280;5655;48.744;9.162;2024-02-21T08:37:45;96662.19;;;9.57;100.00
11198;BME280;5655;48.744;9.162;2024-02-21T08:40:13;96643.66;;;9.49;100.00
11198;BME280;5655;48.744;9.162;2024-02-21T08:42:42;96639.38;;;9.29;100.00
11198;BME280;5655;48.744;9.162;2024-02-21T08:45:08;96632.97;;;9.49;100.00
11198;BME280;5655;48.744;9.162;2024-02-21T08:47:33;96627.78;;;9.56;100.00
11198;BME280;5655;48.744;9.162;2024-02-21T08:50:00;96643.25;;;9.31;100.00
11198;BME280;5655;48.744;9.162;2024-02-21T08:52:25;96637.22;;;9.34;100.00
11198;BME280;5655;48.744;9.162;2024-02-21T08:54:50;96633.06;;;9.52;100.00
11198;BME280;5655;48.744;9.162;2024-02-21T08:57:18;96628.69;;;9.44;100.00
11198;BME280;5655;48.744;9.162;2024-02-21T08:59:44;96636.09;;;9.70;100.00
11198;BME280;5655;48.744;9.162;2024-02-21T09:02:09;96628.16;;;9.74;100.00
11198;BME280;5655;48.744;9.162;2024-02-21T09:04:34;96626.88;;;9.68;100.00
11198;BME280;5655;48.744;9.162;2024-02-21T09:07:00;96616.16;;;9.48;100.00
11198;BME280;5655;48.744;9.162;2024-02-21T09:09:25;96613.25;;;9.92;100.00
11198;BME280;5655;48.744;9.162;2024-02-21T09:11:53;96608.25;;;10.10;100.00
11198;BME280;5655;48.744;9.162;2024-02-21T09:14:18;96610.88;;;10.25;100.00
11198;BME280;5655;48.744;9.162;2024-02-21T09:16:44;96605.16;;;10.08;100.00
11198;BME280;5655;48.744;9.162;2024-02-21T09:19:09;96608.59;;;9.89;100.00
11198;BME280;5655;48.744;9.162;2024-02-21T09:21:39;96598.06;;;9.96;100.00
11198;BME280;5655;48.744;9.162;2024-02-21T09:24:07;96607.41;;;10.06;100.00
11198;BME280;5655;48.744;9.162;2024-02-21T09:26:32;96611.44;;;10.15;100.00
11198;BME280;5655;48.744;9.162;2024-02-21T09:28:58;96596.50;;;9.95;100.00
11198;BME280;5655;48.744;9.162;2024-02-21T09:31:23;96604.88;;;10.13;100.00
11198;BME280;5655;48.744;9.162;2024-02-21T09:33:49;96597.28;;;10.34;100.00
11198;BME280;5655;48.744;9.162;2024-02-21T09:36:14;96590.09;;;10.61;100.00
11198;BME280;5655;48.744;9.162;2024-02-21T09:38:40;96588.25;;;10.42;100.00
11198;BME280;5655;48.744;9.162;2024-02-21T09:41:17;96591.78;;;10.69;100.00
11198;BME280;5655;48.744;9.162;2024-02-21T09:43:43;96589.00;;;10.88;100.00
11198;BME280;5655;48.744;9.162;2024-02-21T09:46:13;96583.66;;;10.88;100.00
11198;BME280;5655;48.744;9.162;2024-02-21T09:48:58;96579.94;;;10.96;100.00
11198;BME280;5655;48.744;9.162;2024-02-21T09:51:30;96566.56;;;11.22;100.00
11198;BME280;5655;48.744;9.162;2024-02-21T09:53:57;96574.41;;;10.82;100.00
11198;BME280;5655;48.744;9.162;2024-02-21T09:56:23;96569.31;;;11.00;100.00
11198;BME280;5655;48.744;9.162;2024-02-21T09:58:48;96570.47;;;11.25;100.00
11198;BME280;5655;48.744;9.162;2024-02-21T10:01:13;96577.66;;;11.47;100.00
11198;BME280;5655;48.744;9.162;2024-02-21T10:03:39;96565.34;;;11.43;100.00
11198;BME280;5655;48.744;9.162;2024-02-21T10:06:05;96561.03;;;11.64;100.00
11198;BME280;5655;48.744;9.162;2024-02-21T10:08:30;96560.50;;;11.52;100.00
11198;BME280;5655;48.744;9.162;2024-02-21T10:10:55;96556.78;;;11.90;100.00
11198;BME280;5655;48.744;9.162;2024-02-21T10:13:28;96551.38;;;11.86;100.00
11198;BME280;5655;48.744;9.162;2024-02-21T10:16:07;96543.47;;;11.70;100.00
11198;BME280;5655;48.744;9.162;2024-02-21T10:18:33;96544.06;;;12.20;100.00
11198;BME280;5655;48.744;9.162;2024-02-21T10:21:08;96542.09;;;12.54;100.00
11198;BME280;5655;48.744;9.162;2024-02-21T10:23:44;96529.50;;;12.21;100.00
11198;BME280;5655;48.744;9.162;2024-02-21T10:26:09;96532.91;;;12.55;100.00
11198;BME280;5655;48.744;9.162;2024-02-21T10:28:34;96525.97;;;12.54;100.00
11198;BME280;5655;48.744;9.162;2024-02-21T10:31:00;96522.34;;;12.80;100.00
11198;BME280;5655;48.744;9.162;2024-02-21T10:33:25;96526.66;;;12.47;100.00
11198;BME280;5655;48.744;9.162;2024-02-21T10:35:53;96526.97;;;12.86;100.00
11198;BME280;5655;48.744;9.162;2024-02-21T10:38:18;96527.22;;;12.67;100.00
11198;BME280;5655;48.744;9.162;2024-02-21T10:40:44;96523.78;;;12.70;100.00
11198;BME280;5655;48.744;9.162;2024-02-21T10:43:12;96512.75;;;12.82;100.00
11198;BME280;5655;48.744;9.162;2024-02-21T10:45:41;96507.84;;;12.91;100.00
11198;BME280;5655;48.744;9.162;2024-02-21T10:48:13;96504.88;;;13.07;100.00
11198;BME280;5655;48.744;9.162;2024-02-21T10:50:46;96510.19;;;13.00;100.00
11198;BME280;5655;48.744;9.162;2024-02-21T10:55:58;96490.78;;;12.66;100.00
11198;BME280;5655;48.744;9.162;2024-02-21T10:58:29;96488.88;;;12.70;100.00
11198;BME280;5655;48.744;9.162;2024-02-21T11:00:55;96477.16;;;12.96;100.00
11198;BME280;5655;48.744;9.162;2024-02-21T11:03:21;96483.13;;;13.26;100.00
11198;BME280;5655;48.744;9.162;2024-02-21T11:05:47;96479.41;;;12.90;100.00
11198;BME280;5655;48.744;9.162;2024-02-21T11:08:13;96471.63;;;12.71;100.00
11198;BME280;5655;48.744;9.162;2024-02-21T11:10:39;96467.75;;;12.65;100.00
11198;BME280;5655;48.744;9.162;2024-02-21T11:13:09;96460.22;;;12.85;100.00
11198;BME280;5655;48.744;9.162;2024-02-21T11:15:35;96459.69;;;13.20;100.00
11198;BME280;5655;48.744;9.162;2024-02-21T11:18:00;96453.63;;;13.37;100.00
11198;BME280;5655;48.744;9.162;2024-02-21T11:20:36;96450.59;;;13.56;100.00
11198;BME280;5655;48.744;9.162;2024-02-21T11:23:02;96450.06;;;13.18;100.00
11198;BME280;5655;48.744;9.162;2024-02-21T11:25:28;96440.53;;;13.32;100.00
11198;BME280;5655;48.744;9.162;2024-02-21T11:28:03;96442.09;;;13.40;100.00
11198;BME280;5655;48.744;9.162;2024-02-21T11:30:30;96435.22;;;13.53;100.00
11198;BME280;5655;48.744;9.162;2024-02-21T11:33:03;96419.13;;;13.67;100.00
11198;BME280;5655;48.744;9.162;2024-02-21T11:35:32;96413.78;;;13.88;100.00
11198;BME280;5655;48.744;9.162;2024-02-21T11:38:12;96407.59;;;13.63;100.00
11198;BME280;5655;48.744;9.162;2024-02-21T11:40:45;96402.97;;;13.53;100.00
11198;BME280;5655;48.744;9.162;2024-02-21T11:43:11;96402.63;;;13.79;100.00
11198;BME280;5655;48.744;9.162;2024-02-21T11:45:36;96400.16;;;13.25;100.00
11198;BME280;5655;48.744;9.162;2024-02-21T11:48:03;96402.56;;;13.51;100.00
11198;BME280;5655;48.744;9.162;2024-02-21T11:50:30;96392.97;;;13.50;100.00
11198;BME280;5655;48.744;9.162;2024-02-21T11:52:56;96380.31;;;13.68;100.00
11198;BME280;5655;48.744;9.162;2024-02-21T11:55:22;96384.56;;;13.83;100.00
11198;BME280;5655;48.744;9.162;2024-02-21T11:57:48;96378.38;;;13.65;100.00
11198;BME280;5655;48.744;9.162;2024-02-21T12:00:22;96363.00;;;13.55;100.00
11198;BME280;5655;48.744;9.162;2024-02-21T12:02:50;96356.50;;;13.81;100.00
11198;BME280;5655;48.744;9.162;2024-02-21T12:05:15;96361.47;;;13.54;100.00
11198;BME280;5655;48.744;9.162;2024-02-21T12:07:41;96349.94;;;13.50;100.00
11198;BME280;5655;48.744;9.162;2024-02-21T12:10:10;96357.63;;;13.55;100.00
11198;BME280;5655;48.744;9.162;2024-02-21T12:12:36;96359.97;;;13.74;100.00
11198;BME280;5655;48.744;9.162;2024-02-21T12:15:03;96349.94;;;13.57;100.00
11198;BME280;5655;48.744;9.162;2024-02-21T12:17:30;96343.06;;;13.77;98.94
11198;BME280;5655;48.744;9.162;2024-02-21T12:19:56;96337.66;;;13.77;94.89
11198;BME280;5655;48.744;9.162;2024-02-21T12:22:22;96320.78;;;13.80;85.68
11198;BME280;5655;48.744;9.162;2024-02-21T12:24:47;96323.06;;;13.99;86.95
11198;BME280;5655;48.744;9.162;2024-02-21T12:27:13;96315.34;;;14.16;83.47
11198;BME280;5655;48.744;9.162;2024-02-21T12:29:39;96315.72;;;14.25;83.32
11198;BME280;5655;48.744;9.162;2024-02-21T12:32:04;96299.97;;;14.27;78.56
11198;BME280;5655;48.744;9.162;2024-02-21T12:34:30;96302.28;;;14.32;76.82
11198;BME280;5655;48.744;9.162;2024-02-21T12:36:58;96288.41;;;14.58;75.03
11198;BME280;5655;48.744;9.162;2024-02-21T12:39:24;96294.53;;;14.55;78.72
11198;BME280;5655;48.744;9.162;2024-02-21T12:41:49;96286.38;;;14.76;80.81
11198;BME280;5655;48.744;9.162;2024-02-21T12:44:14;96282.25;;;14.33;82.40
11198;BME280;5655;48.744;9.162;2024-02-21T12:46:41;96282.09;;;14.89;80.95
11198;BME280;5655;48.744;9.162;2024-02-21T12:49:06;96284.44;;;14.87;77.69
11198;BME280;5655;48.744;9.162;2024-02-21T12:51:35;96261.38;;;14.79;78.86
11198;BME280;5655;48.744;9.162;2024-02-21T12:54:00;96256.72;;;14.80;75.52
11198;BME280;5655;48.744;9.162;2024-02-21T12:56:26;96247.84;;;14.86;74.83
11198;BME280;5655;48.744;9.162;2024-02-21T12:58:52;96252.94;;;14.63;74.86
11198;BME280;5655;48.744;9.162;2024-02-21T13:01:18;96247.59;;;14.56;74.48
11198;BME280;5655;48.744;9.162;2024-02-21T13:03:43;96252.19;;;14.59;72.87
11198;BME280;5655;48.744;9.162;2024-02-21T13:06:08;96232.53;;;14.69;73.06